createdAt,value
2022-08-16T00:02:28.371Z,20.41
2022-08-16T00:04:54.673Z,20.32
2022-08-16T00:07:26.375Z,20.42
2022-08-16T00:09:55.634Z,20.62
2022-08-16T00:12:21.866Z,20.58
2022-08-16T00:14:49.948Z,20.65
2022-08-16T00:17:19.194Z,20.66
2022-08-16T00:19:45.947Z,20.67
2022-08-16T00:22:13.468Z,20.49
2022-08-16T00:24:40.089Z,20.54
2022-08-16T00:27:10.912Z,20.61
2022-08-16T00:29:37.135Z,20.72
2022-08-16T00:32:06.069Z,20.85
2022-08-16T00:34:44.139Z,20.75
2022-08-16T00:37:20.298Z,20.92
2022-08-16T00:39:47.501Z,21.11
2022-08-16T00:42:14.253Z,21.25
2022-08-16T00:44:56.541Z,21.33
2022-08-16T00:47:23.851Z,21.31
2022-08-16T00:49:56.353Z,21.00
2022-08-16T00:52:30.190Z,20.80
2022-08-16T00:54:57.405Z,20.74
2022-08-16T00:57:24.052Z,20.83
2022-08-16T00:59:54.711Z,20.87
2022-08-16T01:02:31.582Z,20.96
2022-08-16T01:05:10.348Z,21.15
2022-08-16T01:07:50.553Z,21.28
2022-08-16T01:10:18.550Z,21.27
2022-08-16T01:12:44.801Z,21.11
2022-08-16T01:15:11.038Z,21.09
2022-08-16T01:17:37.542Z,20.88
2022-08-16T01:20:04.624Z,20.85
2022-08-16T01:22:52.742Z,20.84
2022-08-16T01:25:22.880Z,20.85
2022-08-16T01:28:01.036Z,20.88
2022-08-16T01:30:28.784Z,20.89
2022-08-16T01:32:56.427Z,20.85
2022-08-16T01:35:52.811Z,20.70
2022-08-16T01:38:49.322Z,20.60
2022-08-16T01:41:24.524Z,20.59
2022-08-16T01:43:54.116Z,20.56
2022-08-16T01:46:30.207Z,20.49
2022-08-16T01:49:07.674Z,20.39
2022-08-16T01:51:33.902Z,20.46
2022-08-16T01:54:05.513Z,20.52
2022-08-16T01:56:33.007Z,20.34
2022-08-16T01:59:01.273Z,20.33
2022-08-16T02:01:28.095Z,20.25
2022-08-16T02:03:58.617Z,20.21
2022-08-16T02:06:38.717Z,20.26
2022-08-16T02:09:06.021Z,20.22
2022-08-16T02:11:47.781Z,20.21
2022-08-16T02:14:21.723Z,20.28
2022-08-16T02:16:48.365Z,20.30
2022-08-16T02:19:15.900Z,20.18
2022-08-16T02:22:08.709Z,20.24
2022-08-16T02:24:31.912Z,20.23
2022-08-16T02:26:58.975Z,20.13
2022-08-16T02:29:25.208Z,20.15
2022-08-16T02:32:03.631Z,20.16
2022-08-16T02:34:44.632Z,19.98
2022-08-16T02:37:10.860Z,19.92
2022-08-16T02:39:37.598Z,19.96
2022-08-16T02:42:03.920Z,19.83
2022-08-16T02:44:30.155Z,19.81
2022-08-16T02:46:56.794Z,19.81
2022-08-16T02:49:23.121Z,19.85
2022-08-16T02:52:09.933Z,19.73
2022-08-16T02:54:43.518Z,19.68
2022-08-16T02:57:10.076Z,19.74
2022-08-16T02:59:39.712Z,19.73
2022-08-16T03:02:08.134Z,19.73
2022-08-16T03:04:51.138Z,19.71
2022-08-16T03:07:18.670Z,19.70
2022-08-16T03:09:54.073Z,19.66
2022-08-16T03:12:20.303Z,19.66
2022-08-16T03:14:56.403Z,19.66
2022-08-16T03:17:22.631Z,19.67
2022-08-16T03:20:02.502Z,19.75
2022-08-16T03:22:29.642Z,19.72
2022-08-16T03:25:00.757Z,19.78
2022-08-16T03:27:30.784Z,19.79
2022-08-16T03:29:58.185Z,19.89
2022-08-16T03:32:24.408Z,19.87
2022-08-16T03:34:52.494Z,19.90
2022-08-16T03:37:18.788Z,19.86
2022-08-16T03:39:45.934Z,19.84
2022-08-16T03:42:12.188Z,19.79
2022-08-16T03:44:47.720Z,19.78
2022-08-16T03:47:18.641Z,19.90
2022-08-16T03:49:45.994Z,19.90
2022-08-16T03:52:12.233Z,19.88
2022-08-16T03:54:38.473Z,19.89
2022-08-16T03:57:20.083Z,19.80
2022-08-16T03:59:46.962Z,19.77
2022-08-16T04:02:22.222Z,19.75
2022-08-16T04:04:49.325Z,19.67
2022-08-16T04:07:16.313Z,19.73
2022-08-16T04:09:42.550Z,19.84
2022-08-16T04:12:11.109Z,19.86
2022-08-16T04:14:55.983Z,19.92
2022-08-16T04:17:24.521Z,19.92
2022-08-16T04:19:54.938Z,19.94
2022-08-16T04:22:27.607Z,19.94
2022-08-16T04:24:55.201Z,19.96
2022-08-16T04:27:21.999Z,19.97
2022-08-16T04:29:52.458Z,19.99
2022-08-16T04:32:19.821Z,20.10
2022-08-16T04:34:46.258Z,20.12
2022-08-16T04:37:12.485Z,20.18
2022-08-16T04:39:47.205Z,20.25
2022-08-16T04:42:26.006Z,20.32
2022-08-16T04:44:56.304Z,20.38
2022-08-16T04:47:31.343Z,20.45
2022-08-16T04:49:59.340Z,20.52
2022-08-16T04:52:33.549Z,20.58
2022-08-16T04:55:03.432Z,20.55
2022-08-16T04:57:30.203Z,20.59
2022-08-16T04:59:56.662Z,20.69
2022-08-16T05:02:41.577Z,20.78
2022-08-16T05:05:09.429Z,20.77
2022-08-16T05:07:59.555Z,20.70
2022-08-16T05:10:26.489Z,20.77
2022-08-16T05:12:52.730Z,20.77
2022-08-16T05:15:19.008Z,20.73
2022-08-16T05:17:46.643Z,20.67
2022-08-16T05:20:38.858Z,20.71
2022-08-16T05:22:59.229Z,20.70
2022-08-16T05:25:39.969Z,20.75
2022-08-16T05:28:07.644Z,20.80
2022-08-16T05:30:38.305Z,20.83
2022-08-16T05:33:05.039Z,20.88
2022-08-16T05:35:35.198Z,20.92
2022-08-16T05:38:01.437Z,20.95
2022-08-16T05:40:27.659Z,21.04
2022-08-16T05:42:56.100Z,21.19
2022-08-16T05:45:23.278Z,21.39
2022-08-16T05:47:59.431Z,21.53
2022-08-16T05:50:28.185Z,21.48
2022-08-16T05:53:00.150Z,21.41
2022-08-16T05:55:27.590Z,21.42
2022-08-16T05:57:56.287Z,21.46
2022-08-16T06:00:22.910Z,21.46
2022-08-16T06:02:50.092Z,21.47
2022-08-16T06:05:16.452Z,21.44
2022-08-16T06:07:42.716Z,21.53
2022-08-16T06:10:09.804Z,21.70
2022-08-16T06:12:36.136Z,22.48
2022-08-16T06:15:09.650Z,22.61
2022-08-16T06:17:42.763Z,22.47
2022-08-16T06:20:10.980Z,22.68
2022-08-16T06:22:39.261Z,22.86
2022-08-16T06:25:06.083Z,22.88
2022-08-16T06:27:39.578Z,23.00
2022-08-16T06:30:07.772Z,23.69
2022-08-16T06:32:38.311Z,23.83
2022-08-16T06:35:09.189Z,24.30
2022-08-16T06:37:37.442Z,24.51
2022-08-16T06:40:05.078Z,25.08
2022-08-16T06:42:53.965Z,26.04
2022-08-16T06:45:24.036Z,26.14
2022-08-16T06:47:56.562Z,26.55
2022-08-16T06:50:28.723Z,26.89
2022-08-16T06:52:57.595Z,26.68
2022-08-16T06:55:25.171Z,26.88
2022-08-16T06:57:52.081Z,26.98
2022-08-16T07:00:24.410Z,26.56
2022-08-16T07:02:52.137Z,25.75
2022-08-16T07:05:18.681Z,25.75
2022-08-16T07:07:46.344Z,26.06
2022-08-16T07:10:17.009Z,26.19
2022-08-16T07:12:47.628Z,26.30
2022-08-16T07:15:29.996Z,25.62
2022-08-16T07:17:56.232Z,25.62
2022-08-16T07:20:35.565Z,25.22
2022-08-16T07:23:13.139Z,25.79
2022-08-16T07:25:40.338Z,26.26
2022-08-16T07:28:06.959Z,25.99
2022-08-16T07:30:46.651Z,26.28
2022-08-16T07:33:16.325Z,26.48
2022-08-16T07:35:44.423Z,26.91
2022-08-16T07:38:19.553Z,27.06
2022-08-16T07:41:09.902Z,25.90
2022-08-16T07:43:32.433Z,25.48
2022-08-16T07:45:58.710Z,25.19
2022-08-16T07:48:25.021Z,25.04
2022-08-16T07:50:56.789Z,24.89
2022-08-16T07:53:24.213Z,25.49
2022-08-16T07:55:55.122Z,25.14
2022-08-16T07:58:34.017Z,25.15
2022-08-16T08:01:01.849Z,25.20
2022-08-16T08:03:39.206Z,25.19
2022-08-16T08:06:05.726Z,25.02
2022-08-16T08:08:50.777Z,24.98
2022-08-16T08:11:18.349Z,25.17
2022-08-16T08:13:44.678Z,25.17
2022-08-16T08:16:19.196Z,25.29
2022-08-16T08:18:49.831Z,25.28
2022-08-16T08:21:16.987Z,25.26
2022-08-16T08:23:45.924Z,25.40
2022-08-16T08:26:17.892Z,25.52
2022-08-16T08:28:46.746Z,25.71
2022-08-16T08:31:17.112Z,26.05
2022-08-16T08:33:47.165Z,26.22
2022-08-16T08:36:21.793Z,25.90
2022-08-16T08:38:48.593Z,26.32
2022-08-16T08:41:18.243Z,26.96
2022-08-16T08:43:45.989Z,27.61
2022-08-16T08:46:17.938Z,27.78
2022-08-16T08:48:59.454Z,27.95
2022-08-16T08:51:27.504Z,28.05
2022-08-16T08:53:58.569Z,27.86
2022-08-16T08:56:25.619Z,27.97
2022-08-16T08:58:53.653Z,27.99
2022-08-16T09:01:32.008Z,28.06
2022-08-16T09:04:04.619Z,28.10
2022-08-16T09:06:30.996Z,28.26
2022-08-16T09:08:57.646Z,28.20
2022-08-16T09:11:40.602Z,27.84
2022-08-16T09:14:07.376Z,27.95
2022-08-16T09:17:00.735Z,27.87
2022-08-16T09:19:19.849Z,28.18
2022-08-16T09:21:59.129Z,28.14
2022-08-16T09:24:51.474Z,28.28
2022-08-16T09:27:11.598Z,28.03
2022-08-16T09:29:45.435Z,28.24
2022-08-16T09:32:12.169Z,28.44
2022-08-16T09:34:38.421Z,28.41
2022-08-16T09:37:18.101Z,28.68
2022-08-16T09:39:50.112Z,28.85
2022-08-16T09:42:16.741Z,28.37
2022-08-16T09:45:11.627Z,28.18
2022-08-16T09:47:56.617Z,28.24
2022-08-16T09:50:23.021Z,28.67
2022-08-16T09:52:49.739Z,29.01
2022-08-16T09:55:16.128Z,29.20
2022-08-16T09:57:42.362Z,29.13
2022-08-16T10:00:42.659Z,29.08
2022-08-16T10:03:05.705Z,29.37
2022-08-16T10:05:35.430Z,29.50
2022-08-16T10:08:01.656Z,28.92
2022-08-16T10:10:47.878Z,29.23
2022-08-16T10:13:14.290Z,29.28
2022-08-16T10:15:43.570Z,29.36
2022-08-16T10:18:56.386Z,29.24
2022-08-16T10:21:05.855Z,28.84
2022-08-16T10:23:35.160Z,28.92
2022-08-16T10:27:19.015Z,29.43
2022-08-16T10:28:47.652Z,29.29
2022-08-16T10:31:43.500Z,29.32
2022-08-16T10:34:02.876Z,29.22
2022-08-16T10:36:38.903Z,28.96
2022-08-16T10:39:05.970Z,29.41
2022-08-16T10:41:34.982Z,29.03
2022-08-16T10:44:01.222Z,28.94
2022-08-16T10:46:40.028Z,28.93
2022-08-16T10:49:09.328Z,28.72
2022-08-16T10:52:02.665Z,29.02
2022-08-16T10:54:28.849Z,29.08
2022-08-16T10:56:57.012Z,29.20
2022-08-16T10:59:39.064Z,29.60
2022-08-16T11:02:59.167Z,29.30
2022-08-16T11:05:11.633Z,29.64
2022-08-16T11:07:52.289Z,29.81
2022-08-16T11:11:05.505Z,29.55
2022-08-16T11:15:55.434Z,30.07
2022-08-16T11:19:02.896Z,29.56
2022-08-16T11:21:08.477Z,29.49
2022-08-16T11:23:34.720Z,29.30
2022-08-16T11:26:16.257Z,29.10
2022-08-16T11:31:34.059Z,29.25
2022-08-16T11:34:01.698Z,29.14
2022-08-16T11:36:28.824Z,29.10
2022-08-16T11:38:58.103Z,29.39
2022-08-16T11:41:25.408Z,29.85
2022-08-16T11:43:55.572Z,29.93
2022-08-16T11:46:44.339Z,29.84
2022-08-16T11:49:13.639Z,30.18
2022-08-16T11:51:40.644Z,30.08
2022-08-16T11:54:09.078Z,29.17
2022-08-16T11:56:52.971Z,29.76
2022-08-16T11:59:24.357Z,29.55
2022-08-16T12:01:59.197Z,29.37
2022-08-16T12:04:26.724Z,29.68
2022-08-16T12:06:53.802Z,29.33
2022-08-16T12:09:20.932Z,29.50
2022-08-16T12:11:53.038Z,29.78
2022-08-16T12:14:19.759Z,29.08
2022-08-16T12:16:55.786Z,29.45
2022-08-16T12:19:33.491Z,29.59
2022-08-16T12:22:00.385Z,29.08
2022-08-16T12:24:26.607Z,28.75
2022-08-16T12:26:53.213Z,29.38
2022-08-16T12:29:20.111Z,29.30
2022-08-16T12:32:00.913Z,29.52
2022-08-16T12:34:32.560Z,30.03
2022-08-16T12:37:00.888Z,30.42
2022-08-16T12:39:28.940Z,30.22
2022-08-16T12:41:55.827Z,30.05
2022-08-16T12:44:22.053Z,29.87
2022-08-16T12:46:48.431Z,29.35
2022-08-16T12:49:14.667Z,29.64
2022-08-16T12:51:58.657Z,29.39
2022-08-16T12:54:26.299Z,29.70
2022-08-16T12:56:52.546Z,29.74
2022-08-16T12:59:21.605Z,30.03
2022-08-16T13:01:50.423Z,29.92
2022-08-16T13:04:24.732Z,29.94
2022-08-16T13:06:52.268Z,29.77
2022-08-16T13:09:19.210Z,29.87
2022-08-16T13:11:52.162Z,29.59
2022-08-16T13:14:32.087Z,29.70
2022-08-16T13:17:00.234Z,29.63
2022-08-16T13:19:35.133Z,29.76
2022-08-16T13:22:19.516Z,29.60
2022-08-16T13:24:46.137Z,29.85
2022-08-16T13:27:12.862Z,29.92
2022-08-16T13:29:44.155Z,30.03
2022-08-16T13:32:10.498Z,29.76
2022-08-16T13:34:56.735Z,29.69
2022-08-16T13:37:23.124Z,29.67
2022-08-16T13:39:49.416Z,29.48
2022-08-16T13:42:16.380Z,29.51
2022-08-16T13:44:56.207Z,29.66
2022-08-16T13:47:22.902Z,29.70
2022-08-16T13:49:49.455Z,29.74
2022-08-16T13:52:16.040Z,30.04
2022-08-16T13:54:43.183Z,29.95
2022-08-16T13:57:11.614Z,29.72
2022-08-16T13:59:38.148Z,29.80
2022-08-16T14:02:05.791Z,29.53
2022-08-16T14:04:33.234Z,29.00
2022-08-16T14:07:00.125Z,29.04
2022-08-16T14:09:27.006Z,29.02
2022-08-16T14:11:53.838Z,29.08
2022-08-16T14:14:20.452Z,29.31
2022-08-16T14:16:55.244Z,29.26
2022-08-16T14:19:22.318Z,29.01
2022-08-16T14:21:56.840Z,28.74
2022-08-16T14:24:35.443Z,28.86
2022-08-16T14:27:04.366Z,29.09
2022-08-16T14:29:32.041Z,29.25
2022-08-16T14:32:03.613Z,29.25
2022-08-16T14:34:31.157Z,29.25
2022-08-16T14:36:57.406Z,29.14
2022-08-16T14:39:25.762Z,29.29
2022-08-16T14:41:53.646Z,29.45
2022-08-16T14:44:22.016Z,29.14
2022-08-16T14:46:48.278Z,28.90
2022-08-16T14:49:14.537Z,28.80
2022-08-16T14:51:40.801Z,28.82
2022-08-16T14:54:07.027Z,28.99
2022-08-16T14:56:42.455Z,28.86
2022-08-16T14:59:09.438Z,28.90
2022-08-16T15:01:57.245Z,28.86
2022-08-16T15:04:32.575Z,28.80
2022-08-16T15:07:11.196Z,28.88
2022-08-16T15:09:44.704Z,28.96
2022-08-16T15:12:31.231Z,29.00
2022-08-16T15:15:00.634Z,28.98
2022-08-16T15:17:27.369Z,28.94
2022-08-16T15:20:00.547Z,28.88
2022-08-16T15:22:30.332Z,29.02
2022-08-16T15:24:57.990Z,28.91
2022-08-16T15:27:27.085Z,28.73
2022-08-16T15:30:02.228Z,28.75
2022-08-16T15:32:48.757Z,28.73
2022-08-16T15:35:16.893Z,28.82
2022-08-16T15:37:44.462Z,28.68
2022-08-16T15:40:26.640Z,28.42
2022-08-16T15:42:58.040Z,28.23
2022-08-16T15:45:24.561Z,27.94
2022-08-16T15:47:55.940Z,28.00
2022-08-16T15:50:25.730Z,28.23
2022-08-16T15:52:51.972Z,28.33
2022-08-16T15:55:29.723Z,28.44
2022-08-16T15:58:01.710Z,28.54
2022-08-16T16:00:48.017Z,28.52
2022-08-16T16:03:16.590Z,28.43
2022-08-16T16:05:43.745Z,28.46
2022-08-16T16:08:11.863Z,28.25
2022-08-16T16:10:39.527Z,27.93
2022-08-16T16:13:08.847Z,27.78
2022-08-16T16:15:38.044Z,27.61
2022-08-16T16:18:09.294Z,27.42
2022-08-16T16:20:38.874Z,27.23
2022-08-16T16:23:09.996Z,27.04
2022-08-16T16:25:36.834Z,26.98
2022-08-16T16:28:03.102Z,26.92
2022-08-16T16:30:44.939Z,27.03
2022-08-16T16:33:12.797Z,26.94
2022-08-16T16:35:47.979Z,27.00
2022-08-16T16:38:22.001Z,26.95
2022-08-16T16:40:54.260Z,26.87
2022-08-16T16:43:20.808Z,26.86
2022-08-16T16:45:52.384Z,26.87
2022-08-16T16:48:18.626Z,26.88
2022-08-16T16:50:45.490Z,26.92
2022-08-16T16:53:17.452Z,26.96
2022-08-16T16:55:47.500Z,26.89
2022-08-16T16:58:35.263Z,26.81
2022-08-16T17:01:01.995Z,26.85
2022-08-16T17:03:28.281Z,26.85
2022-08-16T17:06:00.119Z,26.81
2022-08-16T17:08:29.607Z,26.85
2022-08-16T17:10:57.175Z,26.96
2022-08-16T17:13:23.514Z,26.98
2022-08-16T17:15:52.174Z,27.14
2022-08-16T17:19:14.525Z,27.16
2022-08-16T17:21:05.424Z,27.20
2022-08-16T17:23:58.721Z,27.16
2022-08-16T17:26:18.103Z,27.16
2022-08-16T17:28:59.918Z,27.13
2022-08-16T17:31:40.788Z,27.10
2022-08-16T17:34:28.881Z,26.96
2022-08-16T17:36:55.872Z,26.89
2022-08-16T17:39:25.113Z,26.80
2022-08-16T17:41:51.424Z,26.55
2022-08-16T17:44:17.669Z,26.40
2022-08-16T17:46:52.163Z,26.34
2022-08-16T17:49:18.854Z,26.29
2022-08-16T17:51:45.096Z,26.15
2022-08-16T17:54:21.404Z,26.14
2022-08-16T17:56:57.091Z,26.16
2022-08-16T17:59:23.318Z,26.16
2022-08-16T18:01:49.896Z,26.05
2022-08-16T18:04:48.236Z,25.83
2022-08-16T18:07:02.601Z,25.79
2022-08-16T18:09:28.859Z,25.71
2022-08-16T18:11:56.925Z,25.62
2022-08-16T18:14:52.492Z,25.51
2022-08-16T18:17:09.560Z,25.32
2022-08-16T18:19:35.987Z,25.21
2022-08-16T18:22:03.251Z,25.09
2022-08-16T18:24:29.497Z,25.08
2022-08-16T18:26:55.746Z,25.08
2022-08-16T18:29:22.141Z,25.19
2022-08-16T18:31:48.378Z,25.21
2022-08-16T18:34:14.623Z,25.20
2022-08-16T18:36:40.858Z,25.02
2022-08-16T18:39:07.093Z,25.07
2022-08-16T18:41:33.322Z,24.73
2022-08-16T18:44:22.885Z,24.76
2022-08-16T18:46:45.933Z,24.86
2022-08-16T18:49:18.186Z,24.91
2022-08-16T18:51:44.534Z,24.94
2022-08-16T18:54:11.064Z,24.95
2022-08-16T18:56:55.594Z,24.93
2022-08-16T18:59:24.102Z,24.88
2022-08-16T19:01:50.379Z,24.83
2022-08-16T19:04:55.188Z,24.71
2022-08-16T19:07:02.867Z,24.46
2022-08-16T19:09:29.115Z,24.39
2022-08-16T19:11:55.353Z,24.28
2022-08-16T19:14:21.602Z,24.35
2022-08-16T19:16:47.830Z,24.17
2022-08-16T19:19:14.067Z,24.21
2022-08-16T19:21:40.293Z,24.26
2022-08-16T19:24:06.533Z,24.24
2022-08-16T19:26:45.309Z,24.21
2022-08-16T19:29:11.817Z,24.14
2022-08-16T19:31:40.076Z,24.03
2022-08-16T19:34:06.424Z,24.02
2022-08-16T19:36:36.166Z,23.95
2022-08-16T19:39:05.133Z,23.84
2022-08-16T19:41:32.626Z,23.79
2022-08-16T19:43:59.959Z,23.78
2022-08-16T19:46:26.199Z,23.75
2022-08-16T19:48:52.444Z,23.64
2022-08-16T19:51:18.688Z,23.63
2022-08-16T19:53:44.929Z,23.67
2022-08-16T19:56:11.181Z,23.69
2022-08-16T19:58:37.422Z,23.53
2022-08-16T20:01:03.661Z,23.45
2022-08-16T20:03:29.964Z,23.34
2022-08-16T20:05:56.264Z,22.45
2022-08-16T20:08:22.522Z,22.40
2022-08-16T20:10:48.968Z,22.53
2022-08-16T20:13:19.334Z,22.76
2022-08-16T20:15:45.748Z,22.91
2022-08-16T20:18:22.767Z,22.51
2022-08-16T20:20:51.402Z,22.49
2022-08-16T20:23:24.582Z,22.71
2022-08-16T20:25:51.879Z,22.85
2022-08-16T20:28:51.977Z,22.89
2022-08-16T20:31:04.334Z,22.92
2022-08-16T20:33:30.553Z,22.94
2022-08-16T20:35:56.788Z,22.94
2022-08-16T20:38:23.021Z,22.87
2022-08-16T20:40:49.319Z,22.66
2022-08-16T20:43:15.593Z,22.74
2022-08-16T20:45:43.230Z,22.81
2022-08-16T20:48:09.560Z,22.77
2022-08-16T20:50:35.810Z,22.70
2022-08-16T20:53:02.075Z,22.68
2022-08-16T20:55:28.710Z,22.67
2022-08-16T20:57:55.216Z,22.68
2022-08-16T21:00:21.481Z,22.71
2022-08-16T21:02:47.718Z,22.35
2022-08-16T21:05:17.656Z,22.36
2022-08-16T21:07:43.891Z,22.35
2022-08-16T21:10:10.221Z,22.30
2022-08-16T21:12:38.038Z,22.34
2022-08-16T21:15:05.211Z,22.30
2022-08-16T21:17:31.442Z,22.28
2022-08-16T21:19:57.706Z,22.26
2022-08-16T21:22:23.949Z,21.90
2022-08-16T21:24:53.197Z,22.07
2022-08-16T21:27:20.493Z,22.20
2022-08-16T21:29:48.633Z,22.05
2022-08-16T21:32:17.665Z,22.11
2022-08-16T21:34:43.910Z,22.09
2022-08-16T21:37:10.275Z,22.12
2022-08-16T21:39:36.623Z,22.12
2022-08-16T21:42:06.998Z,21.79
2022-08-16T21:44:34.461Z,21.85
2022-08-16T21:47:05.343Z,21.92
2022-08-16T21:49:34.379Z,21.96
2022-08-16T21:52:00.628Z,21.94
2022-08-16T21:54:26.863Z,21.87
2022-08-16T21:56:53.100Z,21.88
2022-08-16T21:59:19.329Z,21.83
2022-08-16T22:01:45.639Z,21.82
2022-08-16T22:04:36.688Z,21.83
2022-08-16T22:06:58.122Z,21.76
2022-08-16T22:09:24.366Z,21.76
2022-08-16T22:11:50.629Z,21.80
2022-08-16T22:14:24.884Z,21.78
2022-08-16T22:16:56.520Z,21.59
2022-08-16T22:19:22.838Z,21.41
2022-08-16T22:21:49.081Z,21.12
2022-08-16T22:24:15.315Z,20.74
2022-08-16T22:26:43.480Z,20.76
2022-08-16T22:29:10.814Z,20.87
2022-08-16T22:31:39.470Z,21.12
2022-08-16T22:34:05.709Z,21.24
2022-08-16T22:36:31.988Z,21.13
2022-08-16T22:38:59.205Z,21.09
2022-08-16T22:41:26.333Z,20.86
2022-08-16T22:43:52.564Z,21.01
2022-08-16T22:46:18.860Z,21.15
2022-08-16T22:48:45.366Z,21.15
2022-08-16T22:51:11.608Z,21.22
2022-08-16T22:53:37.841Z,21.27
2022-08-16T22:56:04.411Z,21.28
2022-08-16T22:58:36.632Z,21.34
2022-08-16T23:01:04.124Z,21.40
2022-08-16T23:03:30.413Z,21.45
2022-08-16T23:05:57.247Z,21.45
2022-08-16T23:08:32.334Z,21.45
2022-08-16T23:11:06.121Z,21.49
2022-08-16T23:13:32.405Z,21.51
2022-08-16T23:15:59.451Z,21.51
2022-08-16T23:18:27.693Z,21.52
2022-08-16T23:20:54.372Z,21.56
2022-08-16T23:23:22.004Z,21.60
2022-08-16T23:25:49.010Z,21.60
2022-08-16T23:28:15.241Z,21.58
2022-08-16T23:30:41.553Z,21.47
2022-08-16T23:33:08.807Z,21.32
2022-08-16T23:35:45.040Z,21.35
2022-08-16T23:38:38.575Z,21.38
2022-08-16T23:40:58.833Z,21.39
2022-08-16T23:43:25.509Z,21.44
2022-08-16T23:45:55.716Z,21.48
2022-08-16T23:48:25.530Z,21.45
2022-08-16T23:50:52.118Z,21.40
2022-08-16T23:53:22.521Z,21.38
2022-08-16T23:55:48.711Z,21.31
2022-08-16T23:58:15.577Z,21.27
